sensor_id;sensor_type;location;lat;lon;timestamp;pressure;altitude;pressure_sealevel;temperature;humidity
3544;BME280;1786;52.870;9.578;2023-06-04T00:01:14;101304.25;;;23.84;35.04
3544;BME280;1786;52.870;9.578;2023-06-04T00:03:42;101305.97;;;24.01;34.75
3544;BME280;1786;52.870;9.578;2023-06-04T00:06:09;101305.66;;;24.12;34.29
3544;BME280;1786;52.870;9.578;2023-06-04T00:08:36;101300.72;;;23.75;35.12
3544;BME280;1786;52.870;9.578;2023-06-04T00:11:03;101297.88;;;23.93;34.63
3544;BME280;1786;52.870;9.578;2023-06-04T00:13:30;101287.59;;;23.96;34.10
3544;BME280;1786;52.870;9.578;2023-06-04T00:15:57;101293.50;;;24.08;34.04
3544;BME280;1786;52.870;9.578;2023-06-04T00:18:24;101289.78;;;24.09;34.13
3544;BME280;1786;52.870;9.578;2023-06-04T00:20:50;101294.81;;;23.88;34.36
3544;BME280;1786;52.870;9.578;2023-06-04T00:23:17;101287.75;;;23.87;34.56
3544;BME280;1786;52.870;9.578;2023-06-04T00:25:45;101293.06;;;23.70;34.60
3544;BME280;1786;52.870;9.578;2023-06-04T00:28:11;101287.41;;;23.90;34.52
3544;BME280;1786;52.870;9.578;2023-06-04T00:30:38;101287.41;;;23.82;35.02
3544;BME280;1786;52.870;9.578;2023-06-04T00:33:04;101291.09;;;23.72;35.05
3544;BME280;1786;52.870;9.578;2023-06-04T00:35:32;101291.94;;;23.73;35.04
3544;BME280;1786;52.870;9.578;2023-06-04T00:37:58;101293.47;;;23.75;34.91
3544;BME280;1786;52.870;9.578;2023-06-04T00:40:25;101289.09;;;23.74;35.18
3544;BME280;1786;52.870;9.578;2023-06-04T00:42:52;101290.59;;;23.85;34.80
3544;BME280;1786;52.870;9.578;2023-06-04T00:45:19;101284.03;;;23.88;34.58
3544;BME280;1786;52.870;9.578;2023-06-04T00:47:47;101285.34;;;23.75;34.86
3544;BME280;1786;52.870;9.578;2023-06-04T00:50:14;101287.75;;;23.87;34.63
3544;BME280;1786;52.870;9.578;2023-06-04T00:52:41;101284.38;;;23.85;34.83
3544;BME280;1786;52.870;9.578;2023-06-04T00:55:09;101288.44;;;23.97;34.88
3544;BME280;1786;52.870;9.578;2023-06-04T00:57:37;101280.50;;;23.95;34.16
3544;BME280;1786;52.870;9.578;2023-06-04T01:00:04;101282.34;;;23.95;34.65
3544;BME280;1786;52.870;9.578;2023-06-04T01:02:33;101288.59;;;23.95;34.66
3544;BME280;1786;52.870;9.578;2023-06-04T01:05:11;101287.75;;;23.87;34.38
3544;BME280;1786;52.870;9.578;2023-06-04T01:07:41;101295.47;;;23.73;34.83
3544;BME280;1786;52.870;9.578;2023-06-04T01:10:13;101288.41;;;23.81;34.75
3544;BME280;1786;52.870;9.578;2023-06-04T01:12:40;101290.22;;;23.72;34.83
3544;BME280;1786;52.870;9.578;2023-06-04T01:15:10;101283.69;;;23.74;34.68
3544;BME280;1786;52.870;9.578;2023-06-04T01:17:39;101278.09;;;23.76;34.90
3544;BME280;1786;52.870;9.578;2023-06-04T01:20:22;101278.06;;;23.68;34.93
3544;BME280;1786;52.870;9.578;2023-06-04T01:28:01;101279.72;;;23.52;34.78
3544;BME280;1786;52.870;9.578;2023-06-04T01:30:31;101283.59;;;23.50;35.32
3544;BME280;1786;52.870;9.578;2023-06-04T01:33:00;101283.44;;;23.51;35.29
3544;BME280;1786;52.870;9.578;2023-06-04T01:35:28;101283.56;;;23.42;35.12
3544;BME280;1786;52.870;9.578;2023-06-04T01:37:55;101285.09;;;23.36;34.97
3544;BME280;1786;52.870;9.578;2023-06-04T01:40:23;101273.06;;;23.30;35.51
3544;BME280;1786;52.870;9.578;2023-06-04T01:42:51;101279.13;;;23.24;35.54
3544;BME280;1786;52.870;9.578;2023-06-04T01:45:18;101273.38;;;23.19;35.66
3544;BME280;1786;52.870;9.578;2023-06-04T01:47:45;101274.22;;;23.20;35.61
3544;BME280;1786;52.870;9.578;2023-06-04T01:50:12;101273.72;;;23.16;35.54
3544;BME280;1786;52.870;9.578;2023-06-04T01:52:39;101272.38;;;23.20;35.72
3544;BME280;1786;52.870;9.578;2023-06-04T01:55:09;101267.06;;;23.02;36.01
3544;BME280;1786;52.870;9.578;2023-06-04T01:57:35;101264.59;;;22.83;36.49
3544;BME280;1786;52.870;9.578;2023-06-04T02:00:03;101271.50;;;22.85;36.09
3544;BME280;1786;52.870;9.578;2023-06-04T02:02:40;101264.63;;;22.57;36.81
3544;BME280;1786;52.870;9.578;2023-06-04T02:05:10;101270.69;;;22.59;36.58
3544;BME280;1786;52.870;9.578;2023-06-04T02:07:38;101270.25;;;22.72;36.60
3544;BME280;1786;52.870;9.578;2023-06-04T02:10:07;101267.91;;;22.68;36.58
3544;BME280;1786;52.870;9.578;2023-06-04T02:12:37;101270.47;;;22.52;36.65
3544;BME280;1786;52.870;9.578;2023-06-04T02:15:05;101272.44;;;22.42;36.64
3544;BME280;1786;52.870;9.578;2023-06-04T02:17:32;101271.22;;;22.36;36.95
3544;BME280;1786;52.870;9.578;2023-06-04T02:20:00;101281.78;;;22.56;36.94
3544;BME280;1786;52.870;9.578;2023-06-04T02:22:27;101282.84;;;22.63;36.70
3544;BME280;1786;52.870;9.578;2023-06-04T02:24:54;101280.63;;;22.58;36.45
3544;BME280;1786;52.870;9.578;2023-06-04T02:27:21;101280.97;;;22.37;37.13
3544;BME280;1786;52.870;9.578;2023-06-04T02:29:48;101274.28;;;22.41;36.80
3544;BME280;1786;52.870;9.578;2023-06-04T02:32:16;101278.19;;;22.47;36.75
3544;BME280;1786;52.870;9.578;2023-06-04T02:34:43;101277.72;;;22.52;36.53
3544;BME280;1786;52.870;9.578;2023-06-04T02:37:11;101290.25;;;22.61;36.48
3544;BME280;1786;52.870;9.578;2023-06-04T02:39:37;101283.84;;;22.62;36.45
3544;BME280;1786;52.870;9.578;2023-06-04T02:42:04;101285.38;;;22.64;36.30
3544;BME280;1786;52.870;9.578;2023-06-04T02:44:31;101286.53;;;22.62;36.15
3544;BME280;1786;52.870;9.578;2023-06-04T02:46:59;101275.44;;;22.65;36.17
3544;BME280;1786;52.870;9.578;2023-06-04T02:49:25;101278.81;;;22.67;35.76
3544;BME280;1786;52.870;9.578;2023-06-04T02:51:52;101279.16;;;22.64;36.12
3544;BME280;1786;52.870;9.578;2023-06-04T02:54:19;101273.91;;;22.62;35.91
3544;BME280;1786;52.870;9.578;2023-06-04T02:59:12;101278.94;;;22.57;35.82
3544;BME280;1786;52.870;9.578;2023-06-04T03:01:40;101284.84;;;22.61;35.89
3544;BME280;1786;52.870;9.578;2023-06-04T03:06:37;101282.53;;;22.66;36.16
3544;BME280;1786;52.870;9.578;2023-06-04T03:09:07;101291.09;;;22.61;36.08
3544;BME280;1786;52.870;9.578;2023-06-04T03:11:34;101291.59;;;22.65;35.43
3544;BME280;1786;52.870;9.578;2023-06-04T03:14:01;101285.69;;;22.61;35.59
3544;BME280;1786;52.870;9.578;2023-06-04T03:16:28;101291.78;;;22.63;35.64
3544;BME280;1786;52.870;9.578;2023-06-04T03:18:55;101284.91;;;22.69;35.76
3544;BME280;1786;52.870;9.578;2023-06-04T03:21:23;101279.16;;;22.64;35.99
3544;BME280;1786;52.870;9.578;2023-06-04T03:23:52;101286.53;;;22.62;35.79
3544;BME280;1786;52.870;9.578;2023-06-04T03:26:18;101289.94;;;22.64;36.01
3544;BME280;1786;52.870;9.578;2023-06-04T03:28:45;101287.91;;;22.66;35.73
3544;BME280;1786;52.870;9.578;2023-06-04T03:31:15;101296.00;;;22.66;35.78
3544;BME280;1786;52.870;9.578;2023-06-04T03:33:42;101295.72;;;22.77;35.47
3544;BME280;1786;52.870;9.578;2023-06-04T03:36:09;101287.63;;;22.77;35.74
3544;BME280;1786;52.870;9.578;2023-06-04T03:38:36;101295.72;;;22.77;35.73
3544;BME280;1786;52.870;9.578;2023-06-04T03:41:03;101289.50;;;22.77;35.83
3544;BME280;1786;52.870;9.578;2023-06-04T03:43:30;101295.72;;;22.77;35.37
3544;BME280;1786;52.870;9.578;2023-06-04T03:46:01;101297.28;;;22.88;35.76
3544;BME280;1786;52.870;9.578;2023-06-04T03:48:28;101298.81;;;22.90;35.46
3544;BME280;1786;52.870;9.578;2023-06-04T03:50:55;101297.50;;;22.95;35.29
3544;BME280;1786;52.870;9.578;2023-06-04T03:53:21;101296.50;;;22.96;35.78
3544;BME280;1786;52.870;9.578;2023-06-04T03:55:49;101289.47;;;23.03;35.42
3544;BME280;1786;52.870;9.578;2023-06-04T03:58:16;101299.59;;;23.01;35.69
3544;BME280;1786;52.870;9.578;2023-06-04T04:00:47;101290.81;;;22.99;35.90
3544;BME280;1786;52.870;9.578;2023-06-04T04:03:15;101297.94;;;23.08;35.71
3544;BME280;1786;52.870;9.578;2023-06-04T04:05:43;101289.84;;;23.08;35.77
3544;BME280;1786;52.870;9.578;2023-06-04T04:08:10;101292.59;;;23.16;35.85
3544;BME280;1786;52.870;9.578;2023-06-04T04:10:37;101286.53;;;23.22;35.44
3544;BME280;1786;52.870;9.578;2023-06-04T04:13:04;101298.06;;;23.41;35.55
3544;BME280;1786;52.870;9.578;2023-06-04T04:15:35;101292.03;;;23.47;35.58
3544;BME280;1786;52.870;9.578;2023-06-04T04:18:03;101294.72;;;23.55;35.09
3544;BME280;1786;52.870;9.578;2023-06-04T04:20:31;101293.25;;;23.69;35.03
3544;BME280;1786;52.870;9.578;2023-06-04T04:23:03;101295.34;;;23.41;35.01
3544;BME280;1786;52.870;9.578;2023-06-04T04:25:30;101296.50;;;23.30;35.74
3544;BME280;1786;52.870;9.578;2023-06-04T04:28:00;101301.28;;;23.44;35.62
3544;BME280;1786;52.870;9.578;2023-06-04T04:30:29;101293.19;;;23.02;35.85
3544;BME280;1786;52.870;9.578;2023-06-04T04:32:56;101284.50;;;22.90;36.05
3544;BME280;1786;52.870;9.578;2023-06-04T04:35:28;101293.34;;;22.74;36.36
3544;BME280;1786;52.870;9.578;2023-06-04T04:38:01;101289.41;;;22.95;36.43
3544;BME280;1786;52.870;9.578;2023-06-04T04:40:37;101296.31;;;23.23;35.61
3544;BME280;1786;52.870;9.578;2023-06-04T04:43:05;101290.53;;;23.10;35.35
3544;BME280;1786;52.870;9.578;2023-06-04T04:45:33;101286.66;;;22.78;36.33
3544;BME280;1786;52.870;9.578;2023-06-04T04:48:02;101290.00;;;22.28;36.71
3544;BME280;1786;52.870;9.578;2023-06-04T04:50:29;101293.34;;;23.00;36.30
3544;BME280;1786;52.870;9.578;2023-06-04T04:52:58;101284.78;;;23.05;36.21
3544;BME280;1786;52.870;9.578;2023-06-04T04:55:25;101281.59;;;23.60;35.66
3544;BME280;1786;52.870;9.578;2023-06-04T04:57:52;101289.13;;;23.40;36.27
3544;BME280;1786;52.870;9.578;2023-06-04T05:00:20;101288.25;;;23.98;35.10
3544;BME280;1786;52.870;9.578;2023-06-04T05:02:51;101284.34;;;24.34;34.72
3544;BME280;1786;52.870;9.578;2023-06-04T05:05:17;101285.06;;;24.03;35.14
3544;BME280;1786;52.870;9.578;2023-06-04T05:07:46;101286.22;;;24.58;34.92
3544;BME280;1786;52.870;9.578;2023-06-04T05:10:14;101277.41;;;24.72;34.54
3544;BME280;1786;52.870;9.578;2023-06-04T05:12:53;101280.81;;;25.22;34.68
3544;BME280;1786;52.870;9.578;2023-06-04T05:15:22;101289.97;;;25.75;34.00
3544;BME280;1786;52.870;9.578;2023-06-04T05:17:51;101281.19;;;27.16;32.15
3544;BME280;1786;52.870;9.578;2023-06-04T05:20:19;101288.47;;;29.77;30.45
3544;BME280;1786;52.870;9.578;2023-06-04T05:22:47;101309.63;;;31.60;27.84
3544;BME280;1786;52.870;9.578;2023-06-04T05:25:16;101327.25;;;33.52;27.75
3544;BME280;1786;52.870;9.578;2023-06-04T05:27:43;101337.97;;;35.31;25.97
3544;BME280;1786;52.870;9.578;2023-06-04T05:30:11;101335.94;;;36.13;25.22
3544;BME280;1786;52.870;9.578;2023-06-04T05:32:38;101348.66;;;37.75;23.68
3544;BME280;1786;52.870;9.578;2023-06-04T05:35:10;101343.81;;;38.89;23.34
3544;BME280;1786;52.870;9.578;2023-06-04T05:37:38;101344.19;;;39.81;22.11
3544;BME280;1786;52.870;9.578;2023-06-04T05:40:09;101341.41;;;40.12;21.21
3544;BME280;1786;52.870;9.578;2023-06-04T05:42:36;101343.91;;;40.70;20.72
3544;BME280;1786;52.870;9.578;2023-06-04T05:45:04;101344.69;;;40.91;21.28
3544;BME280;1786;52.870;9.578;2023-06-04T05:47:31;101348.53;;;40.90;21.04
3544;BME280;1786;52.870;9.578;2023-06-04T05:49:58;101339.72;;;40.77;21.13
3544;BME280;1786;52.870;9.578;2023-06-04T05:52:25;101350.28;;;41.90;20.11
3544;BME280;1786;52.870;9.578;2023-06-04T05:54:52;101354.59;;;42.11;20.35
3544;BME280;1786;52.870;9.578;2023-06-04T05:57:19;101364.00;;;43.22;19.99
3544;BME280;1786;52.870;9.578;2023-06-04T05:59:47;101369.34;;;43.80;19.66
3544;BME280;1786;52.870;9.578;2023-06-04T06:02:17;101365.16;;;44.48;18.95
3544;BME280;1786;52.870;9.578;2023-06-04T06:04:44;101366.94;;;45.00;18.28
3544;BME280;1786;52.870;9.578;2023-06-04T06:07:11;101375.00;;;45.15;18.53
3544;BME280;1786;52.870;9.578;2023-06-04T06:09:38;101376.00;;;45.47;18.69
3544;BME280;1786;52.870;9.578;2023-06-04T06:12:05;101388.56;;;45.72;18.12
3544;BME280;1786;52.870;9.578;2023-06-04T06:14:34;101387.91;;;46.34;17.80
3544;BME280;1786;52.870;9.578;2023-06-04T06:17:01;101388.00;;;46.51;18.39
3544;BME280;1786;52.870;9.578;2023-06-04T06:19:29;101390.25;;;46.18;17.87
3544;BME280;1786;52.870;9.578;2023-06-04T06:21:56;101378.03;;;46.36;17.96
3544;BME280;1786;52.870;9.578;2023-06-04T06:24:26;101380.66;;;46.64;18.15
3544;BME280;1786;52.870;9.578;2023-06-04T06:26:53;101379.19;;;46.35;17.58
3544;BME280;1786;52.870;9.578;2023-06-04T06:29:20;101371.41;;;46.55;17.62
3544;BME280;1786;52.870;9.578;2023-06-04T06:31:48;101376.22;;;46.63;17.46
3544;BME280;1786;52.870;9.578;2023-06-04T06:34:15;101377.28;;;47.42;17.51
3544;BME280;1786;52.870;9.578;2023-06-04T06:36:42;101377.47;;;47.80;17.71
3544;BME280;1786;52.870;9.578;2023-06-04T06:39:09;101376.94;;;47.35;16.89
3544;BME280;1786;52.870;9.578;2023-06-04T06:41:37;101375.97;;;46.82;17.59
3544;BME280;1786;52.870;9.578;2023-06-04T06:44:07;101375.56;;;47.06;17.60
3544;BME280;1786;52.870;9.578;2023-06-04T06:46:34;101376.16;;;46.86;17.02
3544;BME280;1786;52.870;9.578;2023-06-04T06:49:01;101374.69;;;46.97;17.67
3544;BME280;1786;52.870;9.578;2023-06-04T06:51:28;101376.47;;;47.50;17.59
3544;BME280;1786;52.870;9.578;2023-06-04T06:53:55;101379.13;;;47.73;16.75
3544;BME280;1786;52.870;9.578;2023-06-04T06:56:22;101375.03;;;46.55;17.02
3544;BME280;1786;52.870;9.578;2023-06-04T06:58:48;101374.69;;;47.54;16.83
3544;BME280;1786;52.870;9.578;2023-06-04T07:01:15;101375.66;;;47.41;17.09
3544;BME280;1786;52.870;9.578;2023-06-04T07:03:42;101383.19;;;47.40;17.04
3544;BME280;1786;52.870;9.578;2023-06-04T07:06:09;101381.13;;;47.63;17.74
3544;BME280;1786;52.870;9.578;2023-06-04T07:08:35;101378.72;;;47.13;17.10
3544;BME280;1786;52.870;9.578;2023-06-04T07:11:03;101388.03;;;48.09;16.32
3544;BME280;1786;52.870;9.578;2023-06-04T07:13:31;101381.06;;;48.16;16.26
3544;BME280;1786;52.870;9.578;2023-06-04T07:15:59;101389.09;;;48.52;16.52
3544;BME280;1786;52.870;9.578;2023-06-04T07:18:25;101392.13;;;48.21;16.37
3544;BME280;1786;52.870;9.578;2023-06-04T07:20:52;101386.88;;;47.58;16.34
3544;BME280;1786;52.870;9.578;2023-06-04T07:23:23;101382.59;;;46.55;16.95
3544;BME280;1786;52.870;9.578;2023-06-04T07:25:49;101380.06;;;46.76;16.85
3544;BME280;1786;52.870;9.578;2023-06-04T07:28:16;101378.38;;;46.35;16.88
3544;BME280;1786;52.870;9.578;2023-06-04T07:30:45;101385.50;;;46.50;17.29
3544;BME280;1786;52.870;9.578;2023-06-04T07:33:12;101393.81;;;46.63;17.89
3544;BME280;1786;52.870;9.578;2023-06-04T07:35:39;101386.50;;;46.76;17.38
3544;BME280;1786;52.870;9.578;2023-06-04T07:38:06;101388.38;;;46.58;17.97
3544;BME280;1786;52.870;9.578;2023-06-04T07:40:32;101390.63;;;46.48;17.71
3544;BME280;1786;52.870;9.578;2023-06-04T07:42:59;101387.91;;;46.34;18.00
3544;BME280;1786;52.870;9.578;2023-06-04T07:45:25;101376.25;;;44.95;18.45
3544;BME280;1786;52.870;9.578;2023-06-04T07:47:56;101374.19;;;44.87;18.91
3544;BME280;1786;52.870;9.578;2023-06-04T07:50:24;101375.94;;;43.84;18.64
3544;BME280;1786;52.870;9.578;2023-06-04T07:52:51;101375.44;;;43.63;18.76
3544;BME280;1786;52.870;9.578;2023-06-04T07:55:19;101369.56;;;43.22;18.66
3544;BME280;1786;52.870;9.578;2023-06-04T07:57:45;101378.84;;;43.36;18.38
3544;BME280;1786;52.870;9.578;2023-06-04T08:00:12;101368.84;;;43.35;18.45
3544;BME280;1786;52.870;9.578;2023-06-04T08:02:41;101376.34;;;43.59;18.93
3544;BME280;1786;52.870;9.578;2023-06-04T08:05:08;101360.34;;;42.78;18.49
3544;BME280;1786;52.870;9.578;2023-06-04T08:07:35;101364.50;;;42.81;18.76
3544;BME280;1786;52.870;9.578;2023-06-04T08:10:02;101373.19;;;42.45;18.86
3544;BME280;1786;52.870;9.578;2023-06-04T08:12:28;101362.22;;;42.59;18.45
3544;BME280;1786;52.870;9.578;2023-06-04T08:14:55;101371.00;;;42.66;18.87
3544;BME280;1786;52.870;9.578;2023-06-04T08:17:23;101363.59;;;42.56;19.03
3544;BME280;1786;52.870;9.578;2023-06-04T08:19:59;101371.03;;;42.37;18.40
3544;BME280;1786;52.870;9.578;2023-06-04T08:22:40;101363.38;;;42.53;19.23
3544;BME280;1786;52.870;9.578;2023-06-04T08:25:15;101378.81;;;42.01;19.15
3544;BME280;1786;52.870;9.578;2023-06-04T08:27:58;101372.13;;;41.62;19.32
3544;BME280;1786;52.870;9.578;2023-06-04T08:30:44;101373.25;;;41.61;19.87
3544;BME280;1786;52.870;9.578;2023-06-04T08:33:23;101381.22;;;41.13;19.63
3544;BME280;1786;52.870;9.578;2023-06-04T08:35:52;101380.22;;;41.54;19.99
3544;BME280;1786;52.870;9.578;2023-06-04T08:38:19;101378.66;;;41.27;19.58
3544;BME280;1786;52.870;9.578;2023-06-04T08:40:52;101376.31;;;40.54;19.95
3544;BME280;1786;52.870;9.578;2023-06-04T08:43:19;101373.25;;;40.81;19.67
3544;BME280;1786;52.870;9.578;2023-06-04T08:45:49;101370.78;;;40.54;19.54
3544;BME280;1786;52.870;9.578;2023-06-04T08:48:18;101379.91;;;40.59;20.63
3544;BME280;1786;52.870;9.578;2023-06-04T08:50:46;101381.28;;;40.77;20.44
3544;BME280;1786;52.870;9.578;2023-06-04T08:53:15;101388.00;;;40.40;19.91
3544;BME280;1786;52.870;9.578;2023-06-04T08:55:42;101378.50;;;39.80;19.65
3544;BME280;1786;52.870;9.578;2023-06-04T08:58:10;101375.06;;;39.42;20.56
3544;BME280;1786;52.870;9.578;2023-06-04T09:00:37;101377.03;;;39.47;19.93
3544;BME280;1786;52.870;9.578;2023-06-04T09:03:04;101378.91;;;39.36;21.21
3544;BME280;1786;52.870;9.578;2023-06-04T09:05:31;101379.59;;;39.79;20.94
3544;BME280;1786;52.870;9.578;2023-06-04T09:08:00;101383.72;;;39.71;19.58
3544;BME280;1786;52.870;9.578;2023-06-04T09:10:29;101377.34;;;39.76;20.22
3544;BME280;1786;52.870;9.578;2023-06-04T09:12:57;101377.16;;;40.13;21.09
3544;BME280;1786;52.870;9.578;2023-06-04T09:15:27;101376.59;;;40.52;21.62
3544;BME280;1786;52.870;9.578;2023-06-04T09:17:54;101378.69;;;39.48;19.73
3544;BME280;1786;52.870;9.578;2023-06-04T09:20:22;101385.22;;;40.30;21.24
3544;BME280;1786;52.870;9.578;2023-06-04T09:22:48;101384.06;;;40.72;19.44
3544;BME280;1786;52.870;9.578;2023-06-04T09:25:23;101392.81;;;41.25;20.01
3544;BME280;1786;52.870;9.578;2023-06-04T09:27:52;101394.53;;;41.11;18.52
3544;BME280;1786;52.870;9.578;2023-06-04T09:30:22;101394.38;;;41.47;20.23
3544;BME280;1786;52.870;9.578;2023-06-04T09:32:48;101384.63;;;39.87;19.81
3544;BME280;1786;52.870;9.578;2023-06-04T09:35:17;101378.13;;;38.93;20.38
3544;BME280;1786;52.870;9.578;2023-06-04T09:37:55;101379.22;;;39.40;21.30
3544;BME280;1786;52.870;9.578;2023-06-04T09:40:24;101383.16;;;39.64;20.39
3544;BME280;1786;52.870;9.578;2023-06-04T09:42:51;101380.16;;;39.86;19.87
3544;BME280;1786;52.870;9.578;2023-06-04T09:45:28;101392.38;;;40.21;19.92
3544;BME280;1786;52.870;9.578;2023-06-04T09:47:55;101387.66;;;40.11;20.18
3544;BME280;1786;52.870;9.578;2023-06-04T09:50:33;101389.88;;;39.89;21.05
3544;BME280;1786;52.870;9.578;2023-06-04T09:53:19;101378.38;;;38.49;21.66
3544;BME280;1786;52.870;9.578;2023-06-04T09:55:56;101383.84;;;38.81;21.09
3544;BME280;1786;52.870;9.578;2023-06-04T09:58:25;101384.75;;;39.45;20.12
3544;BME280;1786;52.870;9.578;2023-06-04T10:00:54;101380.72;;;39.88;20.67
3544;BME280;1786;52.870;9.578;2023-06-04T10:03:23;101374.34;;;39.04;20.73
3544;BME280;1786;52.870;9.578;2023-06-04T10:05:53;101380.22;;;39.28;20.67
3544;BME280;1786;52.870;9.578;2023-06-04T10:08:22;101374.47;;;39.35;20.26
3544;BME280;1786;52.870;9.578;2023-06-04T10:10:55;101374.91;;;38.64;21.23
3544;BME280;1786;52.870;9.578;2023-06-04T10:13:24;101377.75;;;39.27;21.42
3544;BME280;1786;52.870;9.578;2023-06-04T10:15:54;101378.72;;;39.00;20.96
3544;BME280;1786;52.870;9.578;2023-06-04T10:18:23;101371.88;;;38.70;21.22
3544;BME280;1786;52.870;9.578;2023-06-04T10:20:50;101369.09;;;39.08;20.14
3544;BME280;1786;52.870;9.578;2023-06-04T10:23:19;101373.38;;;38.88;21.57
3544;BME280;1786;52.870;9.578;2023-06-04T10:25:49;101375.06;;;39.37;21.11
3544;BME280;1786;52.870;9.578;2023-06-04T10:28:18;101371.31;;;39.94;21.33
3544;BME280;1786;52.870;9.578;2023-06-04T10:30:47;101379.75;;;39.36;21.42
3544;BME280;1786;52.870;9.578;2023-06-04T10:33:14;101374.09;;;39.21;21.08
3544;BME280;1786;52.870;9.578;2023-06-04T10:35:44;101374.31;;;38.99;21.77
3544;BME280;1786;52.870;9.578;2023-06-04T10:38:12;101377.28;;;39.45;20.47
3544;BME280;1786;52.870;9.578;2023-06-04T10:40:41;101375.00;;;39.32;21.25
3544;BME280;1786;52.870;9.578;2023-06-04T10:43:09;101374.00;;;39.58;21.07
3544;BME280;1786;52.870;9.578;2023-06-04T10:45:36;101379.66;;;40.20;21.23
3544;BME280;1786;52.870;9.578;2023-06-04T10:48:05;101373.03;;;40.26;21.06
3544;BME280;1786;52.870;9.578;2023-06-04T10:50:33;101372.47;;;40.29;21.49
3544;BME280;1786;52.870;9.578;2023-06-04T10:53:00;101383.50;;;40.91;20.07
3544;BME280;1786;52.870;9.578;2023-06-04T10:55:31;101372.19;;;40.05;21.49
3544;BME280;1786;52.870;9.578;2023-06-04T10:58:00;101375.22;;;40.39;22.19
3544;BME280;1786;52.870;9.578;2023-06-04T11:00:39;101370.53;;;40.50;21.17
3544;BME280;1786;52.870;9.578;2023-06-04T11:03:08;101368.00;;;39.92;21.10
3544;BME280;1786;52.870;9.578;2023-06-04T11:05:37;101369.69;;;40.39;20.30
3544;BME280;1786;52.870;9.578;2023-06-04T11:08:05;101372.09;;;40.92;20.07
3544;BME280;1786;52.870;9.578;2023-06-04T11:10:37;101369.19;;;41.38;20.27
3544;BME280;1786;52.870;9.578;2023-06-04T11:13:04;101366.50;;;41.13;19.09
3544;BME280;1786;52.870;9.578;2023-06-04T11:15:45;101363.41;;;41.24;20.97
3544;BME280;1786;52.870;9.578;2023-06-04T11:18:14;101366.31;;;41.59;20.90
3544;BME280;1786;52.870;9.578;2023-06-04T11:20:43;101368.50;;;40.97;19.84
3544;BME280;1786;52.870;9.578;2023-06-04T11:23:12;101360.22;;;39.79;20.44
3544;BME280;1786;52.870;9.578;2023-06-04T11:25:39;101352.97;;;38.89;21.45
3544;BME280;1786;52.870;9.578;2023-06-04T11:28:07;101347.16;;;38.16;21.42
3544;BME280;1786;52.870;9.578;2023-06-04T11:30:34;101342.81;;;39.05;22.74
3544;BME280;1786;52.870;9.578;2023-06-04T11:33:04;101346.69;;;40.13;21.90
3544;BME280;1786;52.870;9.578;2023-06-04T11:35:39;101353.59;;;40.52;21.08
3544;BME280;1786;52.870;9.578;2023-06-04T11:38:07;101358.56;;;40.85;20.15
3544;BME280;1786;52.870;9.578;2023-06-04T11:40:35;101343.13;;;41.34;21.37
3544;BME280;1786;52.870;9.578;2023-06-04T11:43:02;101341.16;;;40.44;20.21
3544;BME280;1786;52.870;9.578;2023-06-04T11:45:29;101339.56;;;41.28;21.56
3544;BME280;1786;52.870;9.578;2023-06-04T11:47:57;101335.94;;;41.33;20.01
3544;BME280;1786;52.870;9.578;2023-06-04T11:50:28;101335.69;;;41.24;20.02
3544;BME280;1786;52.870;9.578;2023-06-04T11:52:55;101336.84;;;41.08;20.35
3544;BME280;1786;52.870;9.578;2023-06-04T11:55:22;101341.38;;;40.83;19.69
3544;BME280;1786;52.870;9.578;2023-06-04T11:57:50;101326.16;;;39.68;21.01
3544;BME280;1786;52.870;9.578;2023-06-04T12:00:18;101329.63;;;39.33;20.75
3544;BME280;1786;52.870;9.578;2023-06-04T12:05:19;101329.09;;;38.36;21.82
3544;BME280;1786;52.870;9.578;2023-06-04T12:07:46;101319.94;;;38.67;21.40
3544;BME280;1786;52.870;9.578;2023-06-04T12:10:18;101320.94;;;38.51;21.20
3544;BME280;1786;52.870;9.578;2023-06-04T12:12:45;101315.13;;;38.95;21.56
3544;BME280;1786;52.870;9.578;2023-06-04T12:15:19;101313.69;;;38.87;21.09
3544;BME280;1786;52.870;9.578;2023-06-04T12:17:50;101323.31;;;39.37;22.40
3544;BME280;1786;52.870;9.578;2023-06-04T12:20:35;101317.78;;;38.80;21.43
3544;BME280;1786;52.870;9.578;2023-06-04T12:23:03;101325.72;;;39.24;21.67
3544;BME280;1786;52.870;9.578;2023-06-04T12:25:32;101324.75;;;39.50;21.24
3544;BME280;1786;52.870;9.578;2023-06-04T12:27:58;101317.63;;;40.11;20.20
3544;BME280;1786;52.870;9.578;2023-06-04T12:30:36;101324.44;;;40.85;20.51
3544;BME280;1786;52.870;9.578;2023-06-04T12:33:03;101326.69;;;40.83;20.91
3544;BME280;1786;52.870;9.578;2023-06-04T12:35:29;101324.16;;;40.92;20.62
3544;BME280;1786;52.870;9.578;2023-06-04T12:37:57;101326.72;;;41.38;19.80
3544;BME280;1786;52.870;9.578;2023-06-04T12:40:24;101318.88;;;41.50;21.04
3544;BME280;1786;52.870;9.578;2023-06-04T12:42:51;101319.66;;;41.06;21.07
3544;BME280;1786;52.870;9.578;2023-06-04T12:45:18;101313.94;;;40.77;20.92
3544;BME280;1786;52.870;9.578;2023-06-04T12:47:45;101308.78;;;40.24;20.65
3544;BME280;1786;52.870;9.578;2023-06-04T12:50:13;101311.44;;;39.37;21.61
3544;BME280;1786;52.870;9.578;2023-06-04T12:52:40;101306.56;;;39.80;20.92
3544;BME280;1786;52.870;9.578;2023-06-04T12:55:08;101314.84;;;40.00;21.18
3544;BME280;1786;52.870;9.578;2023-06-04T12:57:34;101317.03;;;39.73;21.52
3544;BME280;1786;52.870;9.578;2023-06-04T13:00:01;101312.06;;;39.75;21.16
3544;BME280;1786;52.870;9.578;2023-06-04T13:02:28;101305.91;;;39.37;21.45
3544;BME280;1786;52.870;9.578;2023-06-04T13:04:55;101308.25;;;39.03;21.42
3544;BME280;1786;52.870;9.578;2023-06-04T13:07:22;101305.28;;;39.25;22.44
3544;BME280;1786;52.870;9.578;2023-06-04T13:09:52;101303.41;;;39.35;20.61
3544;BME280;1786;52.870;9.578;2023-06-04T13:12:19;101301.34;;;39.05;21.59
3544;BME280;1786;52.870;9.578;2023-06-04T13:14:46;101302.84;;;38.33;23.41
3544;BME280;1786;52.870;9.578;2023-06-04T13:17:13;101305.97;;;38.89;21.15
3544;BME280;1786;52.870;9.578;2023-06-04T13:19:46;101308.16;;;39.76;22.06
3544;BME280;1786;52.870;9.578;2023-06-04T13:22:13;101305.72;;;40.36;20.03
3544;BME280;1786;52.870;9.578;2023-06-04T13:24:40;101309.31;;;41.27;20.47
3544;BME280;1786;52.870;9.578;2023-06-04T13:27:07;101299.44;;;41.50;19.58
3544;BME280;1786;52.870;9.578;2023-06-04T13:29:35;101310.25;;;42.01;20.52